PADM

Details ICAO PADM (MLL)
Name MARSHALL DON HUNTER SR
Region USA (Alaska)
Timezone America/Nome (UTC-9.0)
Plans Departing 0
Arriving 0
Stats Elevation 103 ft / 31 m (AMSL)
Location 61.864177° -162.026110°
Runways 1
Magnetic Variation 11.481° E
Sunrise 2017-12-11 20:01:37 UTC / 2017-12-11 11:01:37 Local
Sunset 2017-12-12 01:24:25 UTC / 2017-12-11 16:24:25 Local
Advertisement - Login to hide

Runways

ID Width Length Bearing (true) Bearing (mag) Surface Threshold Offset Overrun Length
07 98 ft / 30 m 3,190 ft / 972 m 84.96° 73.48° Gravel 0 ft / 0 m 0 ft / 0 m
25 98 ft / 30 m 3,190 ft / 972 m 264.97° 253.49° Gravel 0 ft / 0 m 0 ft / 0 m

Map

Weather


0- 5 10 15 20 25 30 35+ Temperature / ° C

Clouds and Precipitation
Forecast for 2017-12-12 06:00 UTC. Updated 2 hours ago

Ground ~20,000 ft ~40,000 ft Winds

METAR

PADM 120456Z AUTO 03003KT 6SM -SN BR BKN013 BKN030 OVC038 M02/M03 A2968 RMK AO2 SLP060 P0000 T10221028 FZRANO

TAF

Not found

Frequencies

Unicom 122.90 MHz CTAF
Warning: Do not use this data for real-world aviation or navigation. No guarantee of current accuracy is given.